sensor_id;sensor_type;location;lat;lon;timestamp;temperature;humidity
9975;DHT22;5028;50.974;4.968;2024-02-26T00:00:15;6.70;99.90
9975;DHT22;5028;50.974;4.968;2024-02-26T00:02:43;6.80;99.90
9975;DHT22;5028;50.974;4.968;2024-02-26T00:05:11;6.70;99.90
9975;DHT22;5028;50.974;4.968;2024-02-26T00:07:40;6.70;99.90
9975;DHT22;5028;50.974;4.968;2024-02-26T00:10:10;6.60;99.90
9975;DHT22;5028;50.974;4.968;2024-02-26T00:12:38;6.60;99.90
9975;DHT22;5028;50.974;4.968;2024-02-26T00:15:08;6.50;99.90
9975;DHT22;5028;50.974;4.968;2024-02-26T00:17:37;6.60;99.90
9975;DHT22;5028;50.974;4.968;2024-02-26T00:20:06;6.50;99.90
9975;DHT22;5028;50.974;4.968;2024-02-26T00:22:36;6.50;99.90
9975;DHT22;5028;50.974;4.968;2024-02-26T00:25:05;6.50;99.90
9975;DHT22;5028;50.974;4.968;2024-02-26T00:27:34;6.50;99.90
9975;DHT22;5028;50.974;4.968;2024-02-26T00:30:03;6.50;99.90
9975;DHT22;5028;50.974;4.968;2024-02-26T00:32:31;6.50;99.90
9975;DHT22;5028;50.974;4.968;2024-02-26T00:34:59;6.50;99.90
9975;DHT22;5028;50.974;4.968;2024-02-26T00:37:28;6.40;99.90
9975;DHT22;5028;50.974;4.968;2024-02-26T00:39:56;6.40;99.90
9975;DHT22;5028;50.974;4.968;2024-02-26T00:42:24;6.40;99.90
9975;DHT22;5028;50.974;4.968;2024-02-26T00:44:53;6.40;99.90
9975;DHT22;5028;50.974;4.968;2024-02-26T00:47:22;6.40;99.90
9975;DHT22;5028;50.974;4.968;2024-02-26T00:49:50;6.40;99.90
9975;DHT22;5028;50.974;4.968;2024-02-26T00:52:18;6.40;99.90
9975;DHT22;5028;50.974;4.968;2024-02-26T00:54:46;6.40;99.90
9975;DHT22;5028;50.974;4.968;2024-02-26T00:57:14;6.30;99.90
9975;DHT22;5028;50.974;4.968;2024-02-26T00:59:43;6.30;99.90
9975;DHT22;5028;50.974;4.968;2024-02-26T01:02:12;6.30;99.90
9975;DHT22;5028;50.974;4.968;2024-02-26T01:04:40;6.30;99.90
9975;DHT22;5028;50.974;4.968;2024-02-26T01:07:09;6.20;99.90
9975;DHT22;5028;50.974;4.968;2024-02-26T01:09:37;6.20;99.90
9975;DHT22;5028;50.974;4.968;2024-02-26T01:12:06;6.20;99.90
9975;DHT22;5028;50.974;4.968;2024-02-26T01:14:34;6.20;99.90
9975;DHT22;5028;50.974;4.968;2024-02-26T01:17:03;6.10;99.90
9975;DHT22;5028;50.974;4.968;2024-02-26T01:19:32;6.00;99.90
9975;DHT22;5028;50.974;4.968;2024-02-26T01:22:00;6.00;99.90
9975;DHT22;5028;50.974;4.968;2024-02-26T01:24:29;5.90;99.90
9975;DHT22;5028;50.974;4.968;2024-02-26T01:26:57;5.90;99.90
9975;DHT22;5028;50.974;4.968;2024-02-26T01:29:25;5.80;99.90
9975;DHT22;5028;50.974;4.968;2024-02-26T01:31:54;5.80;99.90
9975;DHT22;5028;50.974;4.968;2024-02-26T01:34:22;5.80;99.90
9975;DHT22;5028;50.974;4.968;2024-02-26T01:36:52;5.80;99.90
9975;DHT22;5028;50.974;4.968;2024-02-26T01:39:20;5.80;99.90
9975;DHT22;5028;50.974;4.968;2024-02-26T01:41:49;5.80;99.90
9975;DHT22;5028;50.974;4.968;2024-02-26T01:44:17;5.70;99.90
9975;DHT22;5028;50.974;4.968;2024-02-26T01:46:45;5.70;99.90
9975;DHT22;5028;50.974;4.968;2024-02-26T01:49:14;5.70;99.90
9975;DHT22;5028;50.974;4.968;2024-02-26T01:51:43;5.70;99.90
9975;DHT22;5028;50.974;4.968;2024-02-26T01:54:13;5.70;99.90
9975;DHT22;5028;50.974;4.968;2024-02-26T01:56:42;5.70;99.90
9975;DHT22;5028;50.974;4.968;2024-02-26T01:59:10;5.70;99.90
9975;DHT22;5028;50.974;4.968;2024-02-26T02:01:39;5.70;99.90
9975;DHT22;5028;50.974;4.968;2024-02-26T02:04:12;5.60;99.90
9975;DHT22;5028;50.974;4.968;2024-02-26T02:06:41;5.60;99.90
9975;DHT22;5028;50.974;4.968;2024-02-26T02:09:12;5.60;99.90
9975;DHT22;5028;50.974;4.968;2024-02-26T02:11:41;5.60;99.90
9975;DHT22;5028;50.974;4.968;2024-02-26T02:14:11;5.60;99.90
9975;DHT22;5028;50.974;4.968;2024-02-26T02:16:39;5.60;99.90
9975;DHT22;5028;50.974;4.968;2024-02-26T02:19:07;5.60;99.90
9975;DHT22;5028;50.974;4.968;2024-02-26T02:21:37;5.60;99.90
9975;DHT22;5028;50.974;4.968;2024-02-26T02:24:05;5.60;99.90
9975;DHT22;5028;50.974;4.968;2024-02-26T02:26:33;5.60;99.90
9975;DHT22;5028;50.974;4.968;2024-02-26T02:29:02;5.50;99.90
9975;DHT22;5028;50.974;4.968;2024-02-26T02:31:30;5.60;99.90
9975;DHT22;5028;50.974;4.968;2024-02-26T02:33:58;5.50;99.90
9975;DHT22;5028;50.974;4.968;2024-02-26T02:36:27;5.50;99.90
9975;DHT22;5028;50.974;4.968;2024-02-26T02:38:57;5.60;99.90
9975;DHT22;5028;50.974;4.968;2024-02-26T02:41:25;5.50;99.90
9975;DHT22;5028;50.974;4.968;2024-02-26T02:43:56;5.60;99.90
9975;DHT22;5028;50.974;4.968;2024-02-26T02:46:24;5.50;99.90
9975;DHT22;5028;50.974;4.968;2024-02-26T02:48:53;5.50;99.90
9975;DHT22;5028;50.974;4.968;2024-02-26T02:51:21;5.50;99.90
9975;DHT22;5028;50.974;4.968;2024-02-26T02:53:49;5.50;99.90
9975;DHT22;5028;50.974;4.968;2024-02-26T02:56:19;5.50;99.90
9975;DHT22;5028;50.974;4.968;2024-02-26T02:58:47;5.50;99.90
9975;DHT22;5028;50.974;4.968;2024-02-26T03:01:15;5.50;99.90
9975;DHT22;5028;50.974;4.968;2024-02-26T03:03:43;5.50;99.90
9975;DHT22;5028;50.974;4.968;2024-02-26T03:06:11;5.50;99.90
9975;DHT22;5028;50.974;4.968;2024-02-26T03:08:40;5.50;99.90
9975;DHT22;5028;50.974;4.968;2024-02-26T03:11:13;5.50;99.90
9975;DHT22;5028;50.974;4.968;2024-02-26T03:13:43;5.50;99.90
9975;DHT22;5028;50.974;4.968;2024-02-26T03:16:12;5.50;99.90
9975;DHT22;5028;50.974;4.968;2024-02-26T03:18:40;5.40;99.90
9975;DHT22;5028;50.974;4.968;2024-02-26T03:21:09;5.40;99.90
9975;DHT22;5028;50.974;4.968;2024-02-26T03:23:37;5.40;99.90
9975;DHT22;5028;50.974;4.968;2024-02-26T03:26:05;5.40;99.90
9975;DHT22;5028;50.974;4.968;2024-02-26T03:28:33;5.40;99.90
9975;DHT22;5028;50.974;4.968;2024-02-26T03:31:03;5.40;99.90
9975;DHT22;5028;50.974;4.968;2024-02-26T03:33:31;5.40;99.90
9975;DHT22;5028;50.974;4.968;2024-02-26T03:36:00;5.40;99.90
9975;DHT22;5028;50.974;4.968;2024-02-26T03:38:29;5.40;99.90
9975;DHT22;5028;50.974;4.968;2024-02-26T03:40:57;5.40;99.90
9975;DHT22;5028;50.974;4.968;2024-02-26T03:43:26;5.40;99.90
9975;DHT22;5028;50.974;4.968;2024-02-26T03:45:54;5.40;99.90
9975;DHT22;5028;50.974;4.968;2024-02-26T03:48:23;5.40;99.90
9975;DHT22;5028;50.974;4.968;2024-02-26T03:50:52;5.40;99.90
9975;DHT22;5028;50.974;4.968;2024-02-26T03:53:20;5.30;99.90
9975;DHT22;5028;50.974;4.968;2024-02-26T03:55:48;5.30;99.90
9975;DHT22;5028;50.974;4.968;2024-02-26T03:58:19;5.30;99.90
9975;DHT22;5028;50.974;4.968;2024-02-26T04:00:47;5.30;99.90
9975;DHT22;5028;50.974;4.968;2024-02-26T04:03:15;5.30;99.90
9975;DHT22;5028;50.974;4.968;2024-02-26T04:05:45;5.30;99.90
9975;DHT22;5028;50.974;4.968;2024-02-26T04:08:14;5.40;99.90
9975;DHT22;5028;50.974;4.968;2024-02-26T04:10:42;5.40;99.90
9975;DHT22;5028;50.974;4.968;2024-02-26T04:13:11;5.40;99.90
9975;DHT22;5028;50.974;4.968;2024-02-26T04:15:39;5.40;99.90
9975;DHT22;5028;50.974;4.968;2024-02-26T04:18:07;5.40;99.90
9975;DHT22;5028;50.974;4.968;2024-02-26T04:20:36;5.40;99.90
9975;DHT22;5028;50.974;4.968;2024-02-26T04:23:05;5.40;99.90
9975;DHT22;5028;50.974;4.968;2024-02-26T04:25:33;5.40;99.90
9975;DHT22;5028;50.974;4.968;2024-02-26T04:28:02;5.40;99.90
9975;DHT22;5028;50.974;4.968;2024-02-26T04:30:30;5.40;99.90
9975;DHT22;5028;50.974;4.968;2024-02-26T04:32:58;5.40;99.90
9975;DHT22;5028;50.974;4.968;2024-02-26T04:35:27;5.40;99.90
9975;DHT22;5028;50.974;4.968;2024-02-26T04:37:55;5.40;99.90
9975;DHT22;5028;50.974;4.968;2024-02-26T04:40:24;5.40;99.90
9975;DHT22;5028;50.974;4.968;2024-02-26T04:42:53;5.40;99.90
9975;DHT22;5028;50.974;4.968;2024-02-26T04:45:21;5.40;99.90
9975;DHT22;5028;50.974;4.968;2024-02-26T04:47:49;5.40;99.90
9975;DHT22;5028;50.974;4.968;2024-02-26T04:50:18;5.40;99.90
9975;DHT22;5028;50.974;4.968;2024-02-26T04:52:46;5.40;99.90
9975;DHT22;5028;50.974;4.968;2024-02-26T04:55:14;5.40;99.90
9975;DHT22;5028;50.974;4.968;2024-02-26T04:57:43;5.40;99.90
9975;DHT22;5028;50.974;4.968;2024-02-26T05:00:13;5.40;99.90
9975;DHT22;5028;50.974;4.968;2024-02-26T05:02:41;5.40;99.90
9975;DHT22;5028;50.974;4.968;2024-02-26T05:05:09;5.40;99.90
9975;DHT22;5028;50.974;4.968;2024-02-26T05:07:40;5.40;99.90
9975;DHT22;5028;50.974;4.968;2024-02-26T05:10:09;5.40;99.90
9975;DHT22;5028;50.974;4.968;2024-02-26T05:12:37;5.40;99.90
9975;DHT22;5028;50.974;4.968;2024-02-26T05:15:08;5.40;99.90
9975;DHT22;5028;50.974;4.968;2024-02-26T05:17:36;5.40;99.90
9975;DHT22;5028;50.974;4.968;2024-02-26T05:20:05;5.40;99.90
9975;DHT22;5028;50.974;4.968;2024-02-26T05:22:34;5.40;99.90
9975;DHT22;5028;50.974;4.968;2024-02-26T05:25:03;5.40;99.90
9975;DHT22;5028;50.974;4.968;2024-02-26T05:27:31;5.40;99.90
9975;DHT22;5028;50.974;4.968;2024-02-26T05:30:00;5.40;99.90
9975;DHT22;5028;50.974;4.968;2024-02-26T05:32:29;5.40;99.90
9975;DHT22;5028;50.974;4.968;2024-02-26T05:34:57;5.40;99.90
9975;DHT22;5028;50.974;4.968;2024-02-26T05:37:26;5.40;99.90
9975;DHT22;5028;50.974;4.968;2024-02-26T05:39:54;5.40;99.90
9975;DHT22;5028;50.974;4.968;2024-02-26T05:42:22;5.40;99.90
9975;DHT22;5028;50.974;4.968;2024-02-26T05:44:50;5.40;99.90
9975;DHT22;5028;50.974;4.968;2024-02-26T05:47:19;5.40;99.90
9975;DHT22;5028;50.974;4.968;2024-02-26T05:49:48;5.40;99.90
9975;DHT22;5028;50.974;4.968;2024-02-26T05:52:17;5.30;99.90
9975;DHT22;5028;50.974;4.968;2024-02-26T05:54:51;5.30;99.90
9975;DHT22;5028;50.974;4.968;2024-02-26T05:57:19;5.30;99.90
9975;DHT22;5028;50.974;4.968;2024-02-26T05:59:47;5.30;99.90
9975;DHT22;5028;50.974;4.968;2024-02-26T06:02:15;5.30;99.90
9975;DHT22;5028;50.974;4.968;2024-02-26T06:04:43;5.30;99.90
9975;DHT22;5028;50.974;4.968;2024-02-26T06:07:14;5.30;99.90
9975;DHT22;5028;50.974;4.968;2024-02-26T06:09:43;5.30;99.90
9975;DHT22;5028;50.974;4.968;2024-02-26T06:12:11;5.30;99.90
9975;DHT22;5028;50.974;4.968;2024-02-26T06:14:39;5.20;99.90
9975;DHT22;5028;50.974;4.968;2024-02-26T06:17:07;5.20;99.90
9975;DHT22;5028;50.974;4.968;2024-02-26T06:19:35;5.20;99.90
9975;DHT22;5028;50.974;4.968;2024-02-26T06:22:04;5.20;99.90
9975;DHT22;5028;50.974;4.968;2024-02-26T06:24:34;5.20;99.90
9975;DHT22;5028;50.974;4.968;2024-02-26T06:27:02;5.20;99.90
9975;DHT22;5028;50.974;4.968;2024-02-26T06:29:30;5.20;99.90
9975;DHT22;5028;50.974;4.968;2024-02-26T06:31:58;5.20;99.90
9975;DHT22;5028;50.974;4.968;2024-02-26T06:34:26;5.20;99.90
9975;DHT22;5028;50.974;4.968;2024-02-26T06:36:55;5.20;99.90
9975;DHT22;5028;50.974;4.968;2024-02-26T06:39:23;5.10;99.90
9975;DHT22;5028;50.974;4.968;2024-02-26T06:41:53;5.10;99.90
9975;DHT22;5028;50.974;4.968;2024-02-26T06:44:27;5.10;99.90
9975;DHT22;5028;50.974;4.968;2024-02-26T06:46:58;5.10;99.90
9975;DHT22;5028;50.974;4.968;2024-02-26T06:49:27;5.10;99.90
9975;DHT22;5028;50.974;4.968;2024-02-26T06:51:56;5.10;99.90
9975;DHT22;5028;50.974;4.968;2024-02-26T06:54:24;5.10;99.90
9975;DHT22;5028;50.974;4.968;2024-02-26T06:56:54;5.10;99.90
9975;DHT22;5028;50.974;4.968;2024-02-26T06:59:22;5.10;99.90
9975;DHT22;5028;50.974;4.968;2024-02-26T07:01:50;5.10;99.90
9975;DHT22;5028;50.974;4.968;2024-02-26T07:04:18;5.10;99.90
9975;DHT22;5028;50.974;4.968;2024-02-26T07:06:47;5.10;99.90
9975;DHT22;5028;50.974;4.968;2024-02-26T07:09:17;5.10;99.90
9975;DHT22;5028;50.974;4.968;2024-02-26T07:11:45;5.10;99.90
9975;DHT22;5028;50.974;4.968;2024-02-26T07:14:15;5.10;99.90
9975;DHT22;5028;50.974;4.968;2024-02-26T07:16:43;5.10;99.90
9975;DHT22;5028;50.974;4.968;2024-02-26T07:19:11;5.10;99.90
9975;DHT22;5028;50.974;4.968;2024-02-26T07:21:39;5.10;99.90
9975;DHT22;5028;50.974;4.968;2024-02-26T07:24:08;5.10;99.90
9975;DHT22;5028;50.974;4.968;2024-02-26T07:26:36;5.10;99.90
9975;DHT22;5028;50.974;4.968;2024-02-26T07:29:04;5.10;99.90
9975;DHT22;5028;50.974;4.968;2024-02-26T07:31:34;5.10;99.90
9975;DHT22;5028;50.974;4.968;2024-02-26T07:34:02;5.10;99.90
9975;DHT22;5028;50.974;4.968;2024-02-26T07:36:31;5.10;99.90
9975;DHT22;5028;50.974;4.968;2024-02-26T07:38:59;5.10;99.90
9975;DHT22;5028;50.974;4.968;2024-02-26T07:41:28;5.10;99.90
9975;DHT22;5028;50.974;4.968;2024-02-26T07:43:56;5.10;99.90
9975;DHT22;5028;50.974;4.968;2024-02-26T07:46:24;5.10;99.90
9975;DHT22;5028;50.974;4.968;2024-02-26T07:48:54;5.10;99.90
9975;DHT22;5028;50.974;4.968;2024-02-26T07:51:23;5.10;99.90
9975;DHT22;5028;50.974;4.968;2024-02-26T07:53:51;5.10;99.90
9975;DHT22;5028;50.974;4.968;2024-02-26T07:56:20;5.10;99.90
9975;DHT22;5028;50.974;4.968;2024-02-26T07:58:48;5.10;99.90
9975;DHT22;5028;50.974;4.968;2024-02-26T08:01:16;5.20;99.90
9975;DHT22;5028;50.974;4.968;2024-02-26T08:03:44;5.20;99.90
9975;DHT22;5028;50.974;4.968;2024-02-26T08:06:14;5.10;99.90
9975;DHT22;5028;50.974;4.968;2024-02-26T08:08:43;5.10;99.90
9975;DHT22;5028;50.974;4.968;2024-02-26T08:11:14;5.10;99.90
9975;DHT22;5028;50.974;4.968;2024-02-26T08:13:43;5.20;99.90
9975;DHT22;5028;50.974;4.968;2024-02-26T08:16:11;5.20;99.90
9975;DHT22;5028;50.974;4.968;2024-02-26T08:18:39;5.20;99.90
9975;DHT22;5028;50.974;4.968;2024-02-26T08:21:08;5.20;99.90
9975;DHT22;5028;50.974;4.968;2024-02-26T08:23:37;5.20;99.90
9975;DHT22;5028;50.974;4.968;2024-02-26T08:26:06;5.20;99.90
9975;DHT22;5028;50.974;4.968;2024-02-26T08:28:37;5.20;99.90
9975;DHT22;5028;50.974;4.968;2024-02-26T08:31:06;5.10;99.90
9975;DHT22;5028;50.974;4.968;2024-02-26T08:33:34;5.10;99.90
9975;DHT22;5028;50.974;4.968;2024-02-26T08:36:04;5.10;99.90
9975;DHT22;5028;50.974;4.968;2024-02-26T08:38:33;5.10;99.90
9975;DHT22;5028;50.974;4.968;2024-02-26T08:41:04;5.10;99.90
9975;DHT22;5028;50.974;4.968;2024-02-26T08:43:32;5.10;99.90
9975;DHT22;5028;50.974;4.968;2024-02-26T08:46:00;5.10;99.90
9975;DHT22;5028;50.974;4.968;2024-02-26T08:48:29;5.10;99.90
9975;DHT22;5028;50.974;4.968;2024-02-26T08:50:58;5.10;99.90
9975;DHT22;5028;50.974;4.968;2024-02-26T08:53:26;5.10;99.90
9975;DHT22;5028;50.974;4.968;2024-02-26T08:56:09;5.10;99.90
9975;DHT22;5028;50.974;4.968;2024-02-26T08:58:38;5.10;99.90
9975;DHT22;5028;50.974;4.968;2024-02-26T09:01:06;5.10;99.90
9975;DHT22;5028;50.974;4.968;2024-02-26T09:03:34;5.10;99.90
9975;DHT22;5028;50.974;4.968;2024-02-26T09:06:03;5.10;99.90
9975;DHT22;5028;50.974;4.968;2024-02-26T09:08:33;5.10;99.90
9975;DHT22;5028;50.974;4.968;2024-02-26T09:11:03;5.10;99.90
9975;DHT22;5028;50.974;4.968;2024-02-26T09:13:33;5.10;99.90
9975;DHT22;5028;50.974;4.968;2024-02-26T09:16:01;5.10;99.90
9975;DHT22;5028;50.974;4.968;2024-02-26T09:18:29;5.10;99.90
9975;DHT22;5028;50.974;4.968;2024-02-26T09:20:57;5.10;99.90
9975;DHT22;5028;50.974;4.968;2024-02-26T09:23:26;5.10;99.90
9975;DHT22;5028;50.974;4.968;2024-02-26T09:25:54;5.10;99.90
9975;DHT22;5028;50.974;4.968;2024-02-26T09:28:22;5.10;99.90
9975;DHT22;5028;50.974;4.968;2024-02-26T09:30:52;5.10;99.90
9975;DHT22;5028;50.974;4.968;2024-02-26T09:33:21;5.10;99.90
9975;DHT22;5028;50.974;4.968;2024-02-26T09:35:49;5.10;99.90
9975;DHT22;5028;50.974;4.968;2024-02-26T09:38:18;5.10;99.90
9975;DHT22;5028;50.974;4.968;2024-02-26T09:40:47;5.10;99.90
9975;DHT22;5028;50.974;4.968;2024-02-26T09:43:17;5.10;99.90
9975;DHT22;5028;50.974;4.968;2024-02-26T09:45:51;5.10;99.90
9975;DHT22;5028;50.974;4.968;2024-02-26T09:48:20;5.10;99.90
9975;DHT22;5028;50.974;4.968;2024-02-26T09:50:50;5.10;99.90
9975;DHT22;5028;50.974;4.968;2024-02-26T09:53:22;5.10;99.90
9975;DHT22;5028;50.974;4.968;2024-02-26T09:55:50;5.10;99.90
9975;DHT22;5028;50.974;4.968;2024-02-26T09:58:19;5.10;99.90
9975;DHT22;5028;50.974;4.968;2024-02-26T10:00:53;5.10;99.90
9975;DHT22;5028;50.974;4.968;2024-02-26T10:03:27;5.10;99.90
9975;DHT22;5028;50.974;4.968;2024-02-26T10:05:56;5.10;99.90
9975;DHT22;5028;50.974;4.968;2024-02-26T10:08:26;5.10;99.90
9975;DHT22;5028;50.974;4.968;2024-02-26T10:10:55;5.10;99.90
9975;DHT22;5028;50.974;4.968;2024-02-26T10:13:23;5.10;99.90
9975;DHT22;5028;50.974;4.968;2024-02-26T10:15:53;5.10;99.90
9975;DHT22;5028;50.974;4.968;2024-02-26T10:18:22;5.10;99.90
9975;DHT22;5028;50.974;4.968;2024-02-26T10:21:00;5.10;99.90
9975;DHT22;5028;50.974;4.968;2024-02-26T10:23:29;5.10;99.90
9975;DHT22;5028;50.974;4.968;2024-02-26T10:26:00;5.20;99.90
9975;DHT22;5028;50.974;4.968;2024-02-26T10:28:30;5.10;99.90
9975;DHT22;5028;50.974;4.968;2024-02-26T10:30:59;5.10;99.90
9975;DHT22;5028;50.974;4.968;2024-02-26T10:33:27;5.10;99.90
9975;DHT22;5028;50.974;4.968;2024-02-26T10:36:02;5.10;99.90
9975;DHT22;5028;50.974;4.968;2024-02-26T10:38:30;5.10;99.90
9975;DHT22;5028;50.974;4.968;2024-02-26T10:40:58;5.10;99.90
9975;DHT22;5028;50.974;4.968;2024-02-26T10:43:27;5.10;99.90
9975;DHT22;5028;50.974;4.968;2024-02-26T10:45:55;5.10;99.90
9975;DHT22;5028;50.974;4.968;2024-02-26T10:48:25;5.10;99.90
9975;DHT22;5028;50.974;4.968;2024-02-26T10:50:54;5.10;99.90
9975;DHT22;5028;50.974;4.968;2024-02-26T10:53:27;5.00;99.90
9975;DHT22;5028;50.974;4.968;2024-02-26T10:56:00;5.00;99.90
9975;DHT22;5028;50.974;4.968;2024-02-26T10:58:29;5.10;99.90
9975;DHT22;5028;50.974;4.968;2024-02-26T11:00:59;5.10;99.90
9975;DHT22;5028;50.974;4.968;2024-02-26T11:03:30;5.00;99.90
9975;DHT22;5028;50.974;4.968;2024-02-26T11:06:02;5.00;99.90
9975;DHT22;5028;50.974;4.968;2024-02-26T11:08:31;5.10;99.90
9975;DHT22;5028;50.974;4.968;2024-02-26T11:11:00;5.00;99.90
9975;DHT22;5028;50.974;4.968;2024-02-26T11:13:30;5.00;99.90
9975;DHT22;5028;50.974;4.968;2024-02-26T11:16:03;4.90;99.90
9975;DHT22;5028;50.974;4.968;2024-02-26T11:18:34;4.90;99.90
9975;DHT22;5028;50.974;4.968;2024-02-26T11:21:04;4.90;99.90
9975;DHT22;5028;50.974;4.968;2024-02-26T11:23:35;4.90;99.90
9975;DHT22;5028;50.974;4.968;2024-02-26T11:26:05;5.00;99.90
9975;DHT22;5028;50.974;4.968;2024-02-26T11:28:34;4.90;99.90
9975;DHT22;5028;50.974;4.968;2024-02-26T11:31:03;4.90;99.90
9975;DHT22;5028;50.974;4.968;2024-02-26T11:33:35;4.90;99.90
9975;DHT22;5028;50.974;4.968;2024-02-26T11:36:08;4.90;99.90
9975;DHT22;5028;50.974;4.968;2024-02-26T11:38:37;4.90;99.90
9975;DHT22;5028;50.974;4.968;2024-02-26T11:41:06;4.90;99.90
9975;DHT22;5028;50.974;4.968;2024-02-26T11:43:50;4.90;99.90
9975;DHT22;5028;50.974;4.968;2024-02-26T11:46:26;4.90;99.90
9975;DHT22;5028;50.974;4.968;2024-02-26T11:48:58;4.90;99.90
9975;DHT22;5028;50.974;4.968;2024-02-26T11:51:27;4.90;99.90
9975;DHT22;5028;50.974;4.968;2024-02-26T11:53:55;4.90;99.90
9975;DHT22;5028;50.974;4.968;2024-02-26T11:56:26;4.90;99.90
9975;DHT22;5028;50.974;4.968;2024-02-26T11:59:00;4.90;99.90
9975;DHT22;5028;50.974;4.968;2024-02-26T12:01:39;4.90;99.90
9975;DHT22;5028;50.974;4.968;2024-02-26T12:04:15;4.90;99.90
9975;DHT22;5028;50.974;4.968;2024-02-26T12:06:49;4.90;99.90
9975;DHT22;5028;50.974;4.968;2024-02-26T12:09:31;4.90;99.90
9975;DHT22;5028;50.974;4.968;2024-02-26T12:12:02;4.90;99.90
9975;DHT22;5028;50.974;4.968;2024-02-26T12:14:33;4.90;99.90
9975;DHT22;5028;50.974;4.968;2024-02-26T12:17:01;4.90;99.90
9975;DHT22;5028;50.974;4.968;2024-02-26T12:19:35;4.90;99.90
9975;DHT22;5028;50.974;4.968;2024-02-26T12:22:13;4.90;99.90
9975;DHT22;5028;50.974;4.968;2024-02-26T12:24:41;4.90;99.90
9975;DHT22;5028;50.974;4.968;2024-02-26T12:27:09;5.00;99.90
9975;DHT22;5028;50.974;4.968;2024-02-26T12:29:40;5.00;99.90
9975;DHT22;5028;50.974;4.968;2024-02-26T12:32:08;5.00;99.90
9975;DHT22;5028;50.974;4.968;2024-02-26T12:34:39;5.00;99.90
9975;DHT22;5028;50.974;4.968;2024-02-26T12:37:07;5.00;99.90
9975;DHT22;5028;50.974;4.968;2024-02-26T12:39:37;5.00;99.90
9975;DHT22;5028;50.974;4.968;2024-02-26T12:42:06;5.00;99.90
9975;DHT22;5028;50.974;4.968;2024-02-26T12:44:34;5.00;99.90
9975;DHT22;5028;50.974;4.968;2024-02-26T12:47:03;5.00;99.90
9975;DHT22;5028;50.974;4.968;2024-02-26T12:49:32;5.00;99.90
9975;DHT22;5028;50.974;4.968;2024-02-26T12:52:02;5.00;99.90
9975;DHT22;5028;50.974;4.968;2024-02-26T12:54:31;5.10;99.90
9975;DHT22;5028;50.974;4.968;2024-02-26T12:57:01;5.10;99.90
9975;DHT22;5028;50.974;4.968;2024-02-26T12:59:30;5.10;99.90
9975;DHT22;5028;50.974;4.968;2024-02-26T13:01:59;5.10;99.90
9975;DHT22;5028;50.974;4.968;2024-02-26T13:04:31;5.10;99.90
9975;DHT22;5028;50.974;4.968;2024-02-26T13:07:05;5.10;99.90
9975;DHT22;5028;50.974;4.968;2024-02-26T13:09:34;5.00;99.90
9975;DHT22;5028;50.974;4.968;2024-02-26T13:12:04;5.00;99.90
9975;DHT22;5028;50.974;4.968;2024-02-26T13:14:33;5.00;99.90
9975;DHT22;5028;50.974;4.968;2024-02-26T13:17:03;5.00;99.90
9975;DHT22;5028;50.974;4.968;2024-02-26T13:19:31;5.00;99.90
9975;DHT22;5028;50.974;4.968;2024-02-26T13:22:06;5.00;99.90
9975;DHT22;5028;50.974;4.968;2024-02-26T13:24:34;5.00;99.90
9975;DHT22;5028;50.974;4.968;2024-02-26T13:27:03;5.00;99.90
9975;DHT22;5028;50.974;4.968;2024-02-26T13:29:33;5.00;99.90
9975;DHT22;5028;50.974;4.968;2024-02-26T13:32:01;5.00;99.90
9975;DHT22;5028;50.974;4.968;2024-02-26T13:34:31;5.00;99.90
9975;DHT22;5028;50.974;4.968;2024-02-26T13:37:01;5.00;99.90
9975;DHT22;5028;50.974;4.968;2024-02-26T13:39:31;5.00;99.90
9975;DHT22;5028;50.974;4.968;2024-02-26T13:42:01;4.90;99.90
9975;DHT22;5028;50.974;4.968;2024-02-26T13:44:29;4.90;99.90
9975;DHT22;5028;50.974;4.968;2024-02-26T13:46:58;4.90;99.90
9975;DHT22;5028;50.974;4.968;2024-02-26T13:49:26;4.90;99.90
9975;DHT22;5028;50.974;4.968;2024-02-26T13:51:54;4.90;99.90
9975;DHT22;5028;50.974;4.968;2024-02-26T13:54:23;4.90;99.90
9975;DHT22;5028;50.974;4.968;2024-02-26T13:56:52;4.90;99.90
9975;DHT22;5028;50.974;4.968;2024-02-26T13:59:21;4.90;99.90
9975;DHT22;5028;50.974;4.968;2024-02-26T14:01:49;4.90;99.90
9975;DHT22;5028;50.974;4.968;2024-02-26T14:04:17;4.90;99.90
9975;DHT22;5028;50.974;4.968;2024-02-26T14:06:45;5.00;99.90
9975;DHT22;5028;50.974;4.968;2024-02-26T14:09:13;5.00;99.90
9975;DHT22;5028;50.974;4.968;2024-02-26T14:11:45;5.00;99.90
9975;DHT22;5028;50.974;4.968;2024-02-26T14:14:15;5.00;99.90
9975;DHT22;5028;50.974;4.968;2024-02-26T14:16:43;5.00;99.90
9975;DHT22;5028;50.974;4.968;2024-02-26T14:19:12;5.10;99.90
9975;DHT22;5028;50.974;4.968;2024-02-26T14:21:42;5.10;99.90
9975;DHT22;5028;50.974;4.968;2024-02-26T14:24:10;5.10;99.90
9975;DHT22;5028;50.974;4.968;2024-02-26T14:26:38;5.10;99.90
9975;DHT22;5028;50.974;4.968;2024-02-26T14:29:08;5.10;99.90
9975;DHT22;5028;50.974;4.968;2024-02-26T14:31:37;5.20;99.90
9975;DHT22;5028;50.974;4.968;2024-02-26T14:34:06;5.20;99.90
9975;DHT22;5028;50.974;4.968;2024-02-26T14:36:35;5.20;99.90
9975;DHT22;5028;50.974;4.968;2024-02-26T14:39:03;5.20;99.90
9975;DHT22;5028;50.974;4.968;2024-02-26T14:41:31;5.20;99.90
9975;DHT22;5028;50.974;4.968;2024-02-26T14:44:00;5.30;99.90
9975;DHT22;5028;50.974;4.968;2024-02-26T14:46:28;5.20;99.90
9975;DHT22;5028;50.974;4.968;2024-02-26T14:48:57;5.30;99.90
9975;DHT22;5028;50.974;4.968;2024-02-26T14:51:26;5.30;99.90
9975;DHT22;5028;50.974;4.968;2024-02-26T14:53:54;5.30;99.90
9975;DHT22;5028;50.974;4.968;2024-02-26T14:56:23;5.40;99.90
9975;DHT22;5028;50.974;4.968;2024-02-26T14:58:51;5.40;99.90
9975;DHT22;5028;50.974;4.968;2024-02-26T15:01:20;5.30;99.90
9975;DHT22;5028;50.974;4.968;2024-02-26T15:03:48;5.40;99.90
9975;DHT22;5028;50.974;4.968;2024-02-26T15:06:17;5.40;99.90
9975;DHT22;5028;50.974;4.968;2024-02-26T15:08:48;5.40;99.90
9975;DHT22;5028;50.974;4.968;2024-02-26T15:11:16;5.40;99.90
9975;DHT22;5028;50.974;4.968;2024-02-26T15:13:44;5.40;99.90
9975;DHT22;5028;50.974;4.968;2024-02-26T15:16:17;5.40;99.90
9975;DHT22;5028;50.974;4.968;2024-02-26T15:18:46;5.40;99.90
9975;DHT22;5028;50.974;4.968;2024-02-26T15:21:15;5.40;99.90
9975;DHT22;5028;50.974;4.968;2024-02-26T15:23:44;5.40;99.90
9975;DHT22;5028;50.974;4.968;2024-02-26T15:26:30;5.40;99.90
9975;DHT22;5028;50.974;4.968;2024-02-26T15:28:58;5.50;99.90
9975;DHT22;5028;50.974;4.968;2024-02-26T15:31:27;5.50;99.90
9975;DHT22;5028;50.974;4.968;2024-02-26T15:33:55;5.50;99.90
9975;DHT22;5028;50.974;4.968;2024-02-26T15:36:23;5.50;99.90
9975;DHT22;5028;50.974;4.968;2024-02-26T15:38:53;5.50;99.90
9975;DHT22;5028;50.974;4.968;2024-02-26T15:41:21;5.50;99.90
9975;DHT22;5028;50.974;4.968;2024-02-26T15:43:50;5.50;99.90
9975;DHT22;5028;50.974;4.968;2024-02-26T15:46:18;5.50;99.90
9975;DHT22;5028;50.974;4.968;2024-02-26T15:48:46;5.50;99.90
9975;DHT22;5028;50.974;4.968;2024-02-26T15:51:21;5.50;99.90
9975;DHT22;5028;50.974;4.968;2024-02-26T15:53:52;5.60;99.90
9975;DHT22;5028;50.974;4.968;2024-02-26T15:56:21;5.60;99.90
9975;DHT22;5028;50.974;4.968;2024-02-26T15:58:52;5.60;99.90
9975;DHT22;5028;50.974;4.968;2024-02-26T16:01:20;5.60;99.90
9975;DHT22;5028;50.974;4.968;2024-02-26T16:03:52;5.60;99.90
9975;DHT22;5028;50.974;4.968;2024-02-26T16:06:28;5.60;99.90
9975;DHT22;5028;50.974;4.968;2024-02-26T16:08:58;5.60;99.90
9975;DHT22;5028;50.974;4.968;2024-02-26T16:11:27;5.60;99.90
9975;DHT22;5028;50.974;4.968;2024-02-26T16:13:59;5.60;99.90
9975;DHT22;5028;50.974;4.968;2024-02-26T16:16:31;5.60;99.90
9975;DHT22;5028;50.974;4.968;2024-02-26T16:19:08;5.60;99.90
9975;DHT22;5028;50.974;4.968;2024-02-26T16:21:38;5.60;99.90
9975;DHT22;5028;50.974;4.968;2024-02-26T16:24:08;5.60;99.90
9975;DHT22;5028;50.974;4.968;2024-02-26T16:26:36;5.60;99.90
9975;DHT22;5028;50.974;4.968;2024-02-26T16:29:04;5.60;99.90